Terminal Aerodrome Forecast
Issued by NWS

Home | Current Version | Previous Version | Text Only | Print | Product List | Glossary On
Versions: 1 2 3 4 5 6 7 8 9 10 11 12 13 14 15 16 17 18 19 20 21 22 23 24 25 26
218
FTUS45 KLKN 261727
TAFELY
TAF
KELY 261727Z 2618/2718 18006KT P6SM SCT200
     FM261900 20009KT P6SM OVC080
     FM270900 20007KT P6SM VCSH SCT050 BKN090 OVC150
     FM271700 33013G23KT P6SM -SHRASN SCT025 BKN040=

USA.gov is the U.S. government's official web portal to all federal, state and local government web resources and services.